Time;durP1;ratioP1;P1;durP2;ratioP2;P2;SDS_P1;SDS_P2;PMS_P1;PMS_P2;Temp;Humidity;BMP_temperature;BMP_pressure;BME280_temperature;BME280_humidity;BME280_pressure;Samples;Min_cycle;Max_cycle;Signal;HPM_P1;HPM_P2
2022/04/20 00:00:02;;;;;;;1999.90;999.90;;;;;;;;;;4975068;28;20718;-69
2022/04/20 00:02:47;;;;;;;1999.90;999.90;;;;;;;;;;4974811;28;20220;-69
2022/04/20 00:05:33;;;;;;;1999.90;999.90;;;;;;;;;;4975310;28;20256;-69
2022/04/20 00:08:18;;;;;;;1999.90;999.90;;;;;;;;;;4974669;28;20343;-69
2022/04/20 00:11:03;;;;;;;1999.90;999.90;;;;;;;;;;4974805;28;20239;-70
2022/04/20 00:13:49;;;;;;;1999.90;999.90;;;;;;;;;;4974623;28;20219;-69
2022/04/20 00:16:34;;;;;;;1999.90;999.90;;;;;;;;;;4974607;28;20227;-69
2022/04/20 00:19:19;;;;;;;1999.90;999.90;;;;;;;;;;4973911;28;20231;-69
2022/04/20 00:22:04;;;;;;;1999.90;999.90;;;;;;;;;;4974713;28;20707;-69
2022/04/20 00:24:49;;;;;;;1999.90;999.90;;;;;;;;;;4974669;28;20220;-69
2022/04/20 00:27:35;;;;;;;1999.90;999.90;;;;;;;;;;4974168;28;20509;-68
2022/04/20 00:30:22;;;;;;;1999.90;999.90;;;;;;;;;;4974496;28;20311;-69
2022/04/20 00:33:07;;;;;;;1999.90;999.90;;;;;;;;;;4974161;28;20200;-68
2022/04/20 00:35:52;;;;;;;1999.90;999.90;;;;;;;;;;4974428;28;20223;-69
2022/04/20 00:38:37;;;;;;;1999.90;999.90;;;;;;;;;;4974194;28;20216;-69
2022/04/20 00:41:22;;;;;;;1999.90;999.90;;;;;;;;;;4974449;28;20215;-69
2022/04/20 00:44:07;;;;;;;1999.90;999.90;;;;;;;;;;4974203;28;20295;-69
2022/04/20 00:46:54;;;;;;;1999.90;999.90;;;;;;;;;;4974501;28;20212;-69
2022/04/20 00:49:39;;;;;;;1999.90;999.90;;;;;;;;;;4973897;28;20228;-68
2022/04/20 00:52:24;;;;;;;1999.90;999.90;;;;;;;;;;4974192;28;20330;-68
2022/04/20 00:55:09;;;;;;;1999.90;999.90;;;;;;;;;;4974010;28;20283;-69
2022/04/20 00:57:54;;;;;;;1999.90;999.90;;;;;;;;;;4972700;28;20411;-69
2022/04/20 01:00:39;;;;;;;1999.90;999.90;;;;;;;;;;4974034;28;20287;-69
2022/04/20 01:03:25;;;;;;;1999.90;999.90;;;;;;;;;;4974070;28;20279;-69
2022/04/20 01:06:11;;;;;;;1999.90;999.90;;;;;;;;;;4974050;28;20200;-69
2022/04/20 01:08:55;;;;;;;1999.90;999.90;;;;;;;;;;4972971;28;20409;-69
2022/04/20 01:11:41;;;;;;;1999.90;999.90;;;;;;;;;;4973841;28;20208;-69
2022/04/20 01:14:26;;;;;;;1999.90;999.90;;;;;;;;;;4973801;28;20232;-69
2022/04/20 01:17:11;;;;;;;1999.90;999.90;;;;;;;;;;4973562;28;20355;-69
2022/04/20 01:19:57;;;;;;;1999.90;999.90;;;;;;;;;;4973429;28;20276;-69
2022/04/20 01:22:43;;;;;;;1999.90;999.90;;;;;;;;;;4974088;28;20420;-69
2022/04/20 01:25:29;;;;;;;1999.90;999.90;;;;;;;;;;4973634;28;20199;-69
2022/04/20 01:28:15;;;;;;;1999.90;999.90;;;;;;;;;;4973047;28;20207;-69
2022/04/20 01:31:00;;;;;;;1999.90;999.90;;;;;;;;;;4973509;28;20721;-69
2022/04/20 01:33:45;;;;;;;1999.90;999.90;;;;;;;;;;4973009;28;20216;-69
2022/04/20 01:36:30;;;;;;;1999.90;999.90;;;;;;;;;;4973535;28;20231;-69
2022/04/20 01:39:17;;;;;;;1999.90;999.90;;;;;;;;;;4972820;28;20596;-69
2022/04/20 01:42:02;;;;;;;1999.90;999.90;;;;;;;;;;4973504;28;20207;-68
2022/04/20 01:44:47;;;;;;;1999.90;999.90;;;;;;;;;;4973589;28;20280;-68
2022/04/20 01:47:32;;;;;;;1999.90;999.90;;;;;;;;;;4973296;28;20235;-69
2022/04/20 01:50:17;;;;;;;1999.90;999.90;;;;;;;;;;4972581;28;20474;-68
2022/04/20 01:53:02;;;;;;;1999.90;999.90;;;;;;;;;;4973362;28;20678;-68
2022/04/20 01:55:49;;;;;;;1999.90;999.90;;;;;;;;;;4953959;29;20751;-69
2022/04/20 01:58:34;;;;;;;1999.90;999.90;;;;;;;;;;4953564;29;20690;-69
2022/04/20 02:04:22;;;;;;;1999.90;999.90;;;;;;;;;;4953688;29;20208;-68
2022/04/20 02:07:07;;;;;;;1999.90;999.90;;;;;;;;;;4953814;29;20276;-69
2022/04/20 02:09:53;;;;;;;1999.90;999.90;;;;;;;;;;4953865;29;20433;-68
2022/04/20 02:12:40;;;;;;;1999.90;999.90;;;;;;;;;;4953785;29;20630;-68
2022/04/20 02:15:24;;;;;;;1999.90;999.90;;;;;;;;;;4953481;29;20211;-68
2022/04/20 02:18:10;;;;;;;1999.90;999.90;;;;;;;;;;4952028;29;20533;-69
2022/04/20 02:20:54;;;;;;;1999.90;999.90;;;;;;;;;;4953744;29;20735;-69
2022/04/20 02:23:39;;;;;;;1999.90;999.90;;;;;;;;;;4953621;29;20292;-69
2022/04/20 02:26:24;;;;;;;1999.90;999.90;;;;;;;;;;4953610;29;20736;-69
2022/04/20 02:29:10;;;;;;;1999.90;999.90;;;;;;;;;;4953347;29;20235;-68
2022/04/20 02:31:56;;;;;;;1999.90;999.90;;;;;;;;;;4952388;29;20992;-68
2022/04/20 02:34:41;;;;;;;1999.90;999.90;;;;;;;;;;4953667;29;20207;-68
2022/04/20 02:37:26;;;;;;;1999.90;999.90;;;;;;;;;;4953270;29;20252;-68
2022/04/20 02:40:11;;;;;;;1999.90;999.90;;;;;;;;;;4953638;29;20938;-68
2022/04/20 02:42:57;;;;;;;1999.90;999.90;;;;;;;;;;4969603;28;20701;-66
2022/04/20 02:45:43;;;;;;;1999.90;999.90;;;;;;;;;;4974610;28;20207;-68
2022/04/20 02:48:28;;;;;;;1999.90;999.90;;;;;;;;;;4976009;28;20716;-68
2022/04/20 02:51:13;;;;;;;1999.90;999.90;;;;;;;;;;4976622;28;20208;-68
2022/04/20 02:53:58;;;;;;;1999.90;999.90;;;;;;;;;;4976339;28;20722;-68
2022/04/20 02:56:42;;;;;;;1999.90;999.90;;;;;;;;;;4975948;28;20219;-68
2022/04/20 02:59:27;;;;;;;1999.90;999.90;;;;;;;;;;4975550;28;20219;-66
2022/04/20 03:02:14;;;;;;;1999.90;999.90;;;;;;;;;;4966764;28;20256;-66
2022/04/20 03:04:59;;;;;;;1999.90;999.90;;;;;;;;;;4975761;28;20734;-69
2022/04/20 03:07:44;;;;;;;1999.90;999.90;;;;;;;;;;4975904;28;20200;-68
2022/04/20 03:10:29;;;;;;;1999.90;999.90;;;;;;;;;;4975479;28;20431;-67
2022/04/20 03:13:15;;;;;;;1999.90;999.90;;;;;;;;;;4976134;28;20593;-67
2022/04/20 03:16:00;;;;;;;1999.90;999.90;;;;;;;;;;4978616;28;20211;-68
2022/04/20 03:18:46;;;;;;;1999.90;999.90;;;;;;;;;;4995091;28;20905;-65
2022/04/20 03:21:31;;;;;;;1999.90;999.90;;;;;;;;;;4977796;28;20690;-68
2022/04/20 03:24:16;;;;;;;1999.90;999.90;;;;;;;;;;4975260;28;20290;-68
2022/04/20 03:27:01;;;;;;;1999.90;999.90;;;;;;;;;;4986294;28;20206;-66
2022/04/20 03:29:46;;;;;;;1999.90;999.90;;;;;;;;;;4975345;28;20251;-68
2022/04/20 03:32:31;;;;;;;1999.90;999.90;;;;;;;;;;4975614;28;20346;-68
2022/04/20 03:35:17;;;;;;;1999.90;999.90;;;;;;;;;;4975670;28;20693;-68
2022/04/20 03:38:02;;;;;;;1999.90;999.90;;;;;;;;;;4975001;28;20227;-67
2022/04/20 03:40:47;;;;;;;1999.90;999.90;;;;;;;;;;4973720;28;20408;-69
2022/04/20 03:43:32;;;;;;;1999.90;999.90;;;;;;;;;;4975633;28;20282;-67
2022/04/20 03:46:17;;;;;;;1999.90;999.90;;;;;;;;;;4975045;28;20215;-69
2022/04/20 03:49:02;;;;;;;1999.90;999.90;;;;;;;;;;4974367;28;20219;-68
2022/04/20 03:51:49;;;;;;;1999.90;999.90;;;;;;;;;;4974286;28;20469;-69
2022/04/20 03:54:35;;;;;;;1999.90;999.90;;;;;;;;;;4975344;28;20694;-67
2022/04/20 03:57:20;;;;;;;1999.90;999.90;;;;;;;;;;4955296;28;20279;-69
2022/04/20 04:00:06;;;;;;;1999.90;999.90;;;;;;;;;;4955679;29;20236;-68
2022/04/20 04:02:51;;;;;;;1999.90;999.90;;;;;;;;;;4956771;28;20298;-68
2022/04/20 04:05:36;;;;;;;1999.90;999.90;;;;;;;;;;4974965;28;20253;-66
2022/04/20 04:08:22;;;;;;;1999.90;999.90;;;;;;;;;;4974938;28;20585;-68
2022/04/20 04:11:07;;;;;;;1999.90;999.90;;;;;;;;;;4974900;28;20691;-68
2022/04/20 04:13:52;;;;;;;1999.90;999.90;;;;;;;;;;4974615;28;20203;-68
2022/04/20 04:16:37;;;;;;;1999.90;999.90;;;;;;;;;;4974804;28;20227;-67
2022/04/20 04:19:22;;;;;;;1999.90;999.90;;;;;;;;;;4974587;28;20232;-68
2022/04/20 04:22:07;;;;;;;1999.90;999.90;;;;;;;;;;4974490;28;20215;-68
2022/04/20 04:24:53;;;;;;;1999.90;999.90;;;;;;;;;;4974358;28;20295;-68
2022/04/20 04:27:38;;;;;;;1999.90;999.90;;;;;;;;;;4974367;28;20231;-68
2022/04/20 04:30:23;;;;;;;1999.90;999.90;;;;;;;;;;4974602;28;20224;-68
2022/04/20 04:33:08;;;;;;;1999.90;999.90;;;;;;;;;;4973764;28;20411;-68
2022/04/20 04:35:53;;;;;;;1999.90;999.90;;;;;;;;;;4974282;28;20222;-68
2022/04/20 04:38:37;;;;;;;1999.90;999.90;;;;;;;;;;4973882;28;20344;-69
2022/04/20 04:41:24;;;;;;;1999.90;999.90;;;;;;;;;;4974138;28;20204;-69
2022/04/20 04:44:09;;;;;;;1999.90;999.90;;;;;;;;;;4974570;28;20204;-68
2022/04/20 04:49:57;;;;;;;1999.90;999.90;;;;;;;;;;4973903;28;20239;-68
2022/04/20 04:52:42;;;;;;;1999.90;999.90;;;;;;;;;;4973802;28;20298;-68
2022/04/20 04:55:27;;;;;;;1999.90;999.90;;;;;;;;;;4973928;28;20258;-66
2022/04/20 04:58:13;;;;;;;1999.90;999.90;;;;;;;;;;4973766;28;20618;-68
2022/04/20 05:00:58;;;;;;;1999.90;999.90;;;;;;;;;;4973816;28;20726;-67
2022/04/20 05:03:43;;;;;;;1999.90;999.90;;;;;;;;;;4973009;28;20482;-68
2022/04/20 05:06:28;;;;;;;1999.90;999.90;;;;;;;;;;4973878;28;20207;-68
2022/04/20 05:09:13;;;;;;;1999.90;999.90;;;;;;;;;;4972190;28;20283;-67
2022/04/20 05:11:58;;;;;;;1999.90;999.90;;;;;;;;;;4973375;28;20206;-68
2022/04/20 05:14:44;;;;;;;1999.90;999.90;;;;;;;;;;4973460;28;20417;-68
2022/04/20 05:17:30;;;;;;;1999.90;999.90;;;;;;;;;;4973555;28;20223;-68
2022/04/20 05:20:14;;;;;;;1999.90;999.90;;;;;;;;;;4979055;28;20339;-68
2022/04/20 05:23:00;;;;;;;1999.90;999.90;;;;;;;;;;4972626;28;21006;-67
2022/04/20 05:25:45;;;;;;;1999.90;999.90;;;;;;;;;;4973739;28;20220;-67
2022/04/20 05:28:30;;;;;;;1999.90;999.90;;;;;;;;;;4972608;28;20571;-67
2022/04/20 05:31:17;;;;;;;1999.90;999.90;;;;;;;;;;4975994;28;20212;-68
2022/04/20 05:34:03;;;;;;;1999.90;999.90;;;;;;;;;;4973449;28;20230;-68
2022/04/20 05:42:55;;;;;;;1999.90;999.90;;;;;;;;;;4973348;28;20211;-69
2022/04/20 05:45:40;;;;;;;1999.90;999.90;;;;;;;;;;4972986;28;20787;-68
2022/04/20 05:48:26;;;;;;;1999.90;999.90;;;;;;;;;;4973087;28;20344;-68
2022/04/20 05:51:11;;;;;;;1999.90;999.90;;;;;;;;;;4973417;28;20615;-68
2022/04/20 05:53:56;;;;;;;1999.90;999.90;;;;;;;;;;4972807;28;20331;-69
2022/04/20 05:56:41;;;;;;;1999.90;999.90;;;;;;;;;;4973290;28;20200;-69
2022/04/20 05:59:26;;;;;;;1999.90;999.90;;;;;;;;;;4972960;28;20267;-68
2022/04/20 06:02:11;;;;;;;1999.90;999.90;;;;;;;;;;4973185;28;20247;-68
2022/04/20 06:04:57;;;;;;;1999.90;999.90;;;;;;;;;;4973378;28;20210;-69
2022/04/20 06:07:42;;;;;;;1999.90;999.90;;;;;;;;;;4973005;28;20251;-68
2022/04/20 06:10:29;;;;;;;1999.90;999.90;;;;;;;;;;4973028;28;20598;-69
2022/04/20 06:13:14;;;;;;;1999.90;999.90;;;;;;;;;;4973135;28;20694;-68
2022/04/20 06:15:58;;;;;;;1999.90;999.90;;;;;;;;;;4972853;28;20207;-68
2022/04/20 06:18:43;;;;;;;1999.90;999.90;;;;;;;;;;4973062;28;20223;-67
2022/04/20 06:21:29;;;;;;;1999.90;999.90;;;;;;;;;;4976911;28;20814;-68
2022/04/20 06:24:14;;;;;;;1999.90;999.90;;;;;;;;;;4976915;28;20207;-68
2022/04/20 06:27:01;;;;;;;1999.90;999.90;;;;;;;;;;4976632;28;20200;-68
2022/04/20 06:29:46;;;;;;;1999.90;999.90;;;;;;;;;;4977120;28;20234;-67
2022/04/20 06:32:31;;;;;;;1999.90;999.90;;;;;;;;;;4976840;28;20216;-68
2022/04/20 06:35:16;;;;;;;1999.90;999.90;;;;;;;;;;4975082;28;20340;-68
2022/04/20 06:38:03;;;;;;;1999.90;999.90;;;;;;;;;;4976266;28;20235;-67
2022/04/20 06:40:48;;;;;;;1999.90;999.90;;;;;;;;;;4975166;28;20423;-67
2022/04/20 06:43:33;;;;;;;1999.90;999.90;;;;;;;;;;4976810;28;20690;-68
2022/04/20 06:46:18;;;;;;;1999.90;999.90;;;;;;;;;;4976763;28;20188;-68
2022/04/20 06:49:03;;;;;;;1999.90;999.90;;;;;;;;;;4975972;28;20203;-68
2022/04/20 07:00:58;;;;;;;1999.90;999.90;;;;;;;;;;4975910;28;20227;-69
2022/04/20 07:03:43;;;;;;;1999.90;999.90;;;;;;;;;;4975610;28;20207;-68
2022/04/20 07:06:28;;;;;;;1999.90;999.90;;;;;;;;;;4995360;28;20331;-69
2022/04/20 07:09:13;;;;;;;1999.90;999.90;;;;;;;;;;4986154;28;20706;-67
2022/04/20 07:11:59;;;;;;;1999.90;999.90;;;;;;;;;;4975775;28;20204;-69
2022/04/20 07:14:45;;;;;;;1999.90;999.90;;;;;;;;;;4976062;28;20236;-70
2022/04/20 07:17:29;;;;;;;1999.90;999.90;;;;;;;;;;4975821;28;20240;-68
2022/04/20 07:20:17;;;;;;;1999.90;999.90;;;;;;;;;;4975563;28;20232;-69
2022/04/20 07:23:03;;;;;;;1999.90;999.90;;;;;;;;;;4956538;29;20329;-69
2022/04/20 07:25:48;;;;;;;1999.90;999.90;;;;;;;;;;4956453;29;20324;-68
2022/04/20 07:28:34;;;;;;;1999.90;999.90;;;;;;;;;;4955897;29;20341;-69
2022/04/20 07:31:19;;;;;;;1999.90;999.90;;;;;;;;;;4967495;28;20220;-68
2022/04/20 07:34:04;;;;;;;1999.90;999.90;;;;;;;;;;4974990;28;20204;-68
2022/04/20 07:36:49;;;;;;;1999.90;999.90;;;;;;;;;;4970276;28;20211;-68
2022/04/20 07:39:34;;;;;;;1999.90;999.90;;;;;;;;;;4972535;28;20310;-68
2022/04/20 07:42:21;;;;;;;1999.90;999.90;;;;;;;;;;4973020;28;20606;-68
2022/04/20 07:45:09;;;;;;;1999.90;999.90;;;;;;;;;;4971443;28;20203;-68
2022/04/20 07:47:55;;;;;;;1999.90;999.90;;;;;;;;;;4971478;28;20199;-68
2022/04/20 07:50:40;;;;;;;1999.90;999.90;;;;;;;;;;4973028;28;20831;-69
2022/04/20 07:53:25;;;;;;;1999.90;999.90;;;;;;;;;;4973032;28;20737;-69
2022/04/20 07:56:10;;;;;;;1999.90;999.90;;;;;;;;;;4972076;28;20212;-70
2022/04/20 07:58:55;;;;;;;1999.90;999.90;;;;;;;;;;4971888;28;20587;-66
2022/04/20 08:01:42;;;;;;;1999.90;999.90;;;;;;;;;;4972984;28;20211;-67
2022/04/20 08:04:27;;;;;;;1999.90;999.90;;;;;;;;;;4971081;28;21004;-67
2022/04/20 08:07:12;;;;;;;1999.90;999.90;;;;;;;;;;4972420;28;20208;-68
2022/04/20 08:09:57;;;;;;;1999.90;999.90;;;;;;;;;;4972145;28;20290;-68
2022/04/20 08:12:44;;;;;;;1999.90;999.90;;;;;;;;;;4972727;28;20208;-68
2022/04/20 08:15:29;;;;;;;1999.90;999.90;;;;;;;;;;4972468;28;20207;-68
2022/04/20 08:18:15;;;;;;;1999.90;999.90;;;;;;;;;;4972177;28;20307;-68
2022/04/20 08:21:00;;;;;;;1999.90;999.90;;;;;;;;;;4970837;28;20232;-68
2022/04/20 08:23:45;;;;;;;1999.90;999.90;;;;;;;;;;4971838;28;20212;-67
2022/04/20 08:26:30;;;;;;;1999.90;999.90;;;;;;;;;;4971937;28;20283;-69
2022/04/20 08:29:15;;;;;;;1999.90;999.90;;;;;;;;;;4971942;28;20225;-67
2022/04/20 08:32:00;;;;;;;1999.90;999.90;;;;;;;;;;4972028;28;20204;-68
2022/04/20 08:34:48;;;;;;;1999.90;999.90;;;;;;;;;;4972016;28;20702;-67
2022/04/20 08:37:33;;;;;;;1999.90;999.90;;;;;;;;;;4971900;28;20215;-67
2022/04/20 08:40:18;;;;;;;1999.90;999.90;;;;;;;;;;4971038;28;20227;-68
2022/04/20 08:43:05;;;;;;;1999.90;999.90;;;;;;;;;;4970519;28;20526;-69
2022/04/20 08:45:50;;;;;;;1999.90;999.90;;;;;;;;;;4971651;28;20223;-68
2022/04/20 08:48:35;;;;;;;1999.90;999.90;;;;;;;;;;4971181;28;20698;-68
2022/04/20 08:51:21;;;;;;;1999.90;999.90;;;;;;;;;;4970569;28;20609;-68
2022/04/20 08:54:06;;;;;;;1999.90;999.90;;;;;;;;;;4972421;28;20215;-67
2022/04/20 08:59:55;;;;;;;1999.90;999.90;;;;;;;;;;4971016;28;20235;-67
2022/04/20 09:02:40;;;;;;;1999.90;999.90;;;;;;;;;;4971654;28;20759;-68
2022/04/20 09:05:27;;;;;;;1999.90;999.90;;;;;;;;;;4971716;28;20212;-67
2022/04/20 09:08:13;;;;;;;1999.90;999.90;;;;;;;;;;4971364;28;20316;-68
2022/04/20 09:10:59;;;;;;;1999.90;999.90;;;;;;;;;;4971041;28;20368;-68
2022/04/20 09:13:45;;;;;;;1999.90;999.90;;;;;;;;;;4971696;28;20738;-68
2022/04/20 09:16:31;;;;;;;1999.90;999.90;;;;;;;;;;4971542;28;20295;-68
2022/04/20 09:19:23;;;;;;;1999.90;999.90;;;;;;;;;;4971052;28;20504;-67
2022/04/20 09:22:19;;;;;;;1999.90;999.90;;;;;;;;;;4971489;28;20698;-67
2022/04/20 09:25:08;;;;;;;1999.90;999.90;;;;;;;;;;4970992;28;20455;-69
2022/04/20 09:27:52;;;;;;;1999.90;999.90;;;;;;;;;;4971454;28;20290;-68
2022/04/20 09:30:39;;;;;;;1999.90;999.90;;;;;;;;;;4971265;28;20271;-69
2022/04/20 09:33:40;;;;;;;1999.90;999.90;;;;;;;;;;4971267;28;20266;-68
2022/04/20 09:36:40;;;;;;;1999.90;999.90;;;;;;;;;;4972064;28;20638;-67
2022/04/20 09:39:30;;;;;;;1999.90;999.90;;;;;;;;;;4971090;28;20323;-65
2022/04/20 09:42:18;;;;;;;1999.90;999.90;;;;;;;;;;4972011;28;20203;-67
2022/04/20 09:45:05;;;;;;;1999.90;999.90;;;;;;;;;;4971277;28;20678;-67
2022/04/20 09:50:52;;;;;;;1999.90;999.90;;;;;;;;;;4971147;28;20629;-68
2022/04/20 09:53:37;;;;;;;1999.90;999.90;;;;;;;;;;4971063;28;20219;-68
2022/04/20 09:56:23;;;;;;;1999.90;999.90;;;;;;;;;;4971022;28;20207;-68
2022/04/20 09:59:10;;;;;;;1999.90;999.90;;;;;;;;;;4970441;28;20232;-68
2022/04/20 10:01:55;;;;;;;1999.90;999.90;;;;;;;;;;4971080;28;20255;-67
2022/04/20 10:04:41;;;;;;;1999.90;999.90;;;;;;;;;;4971154;28;20212;-67
2022/04/20 10:07:26;;;;;;;1999.90;999.90;;;;;;;;;;4969677;28;20409;-67
2022/04/20 10:10:11;;;;;;;1999.90;999.90;;;;;;;;;;4971376;28;20274;-66
2022/04/20 10:12:56;;;;;;;1999.90;999.90;;;;;;;;;;4970860;28;20212;-68
2022/04/20 10:18:50;;;;;;;1999.90;999.90;;;;;;;;;;4969804;28;20232;-68
2022/04/20 10:21:37;;;;;;;1999.90;999.90;;;;;;;;;;4969077;28;20271;-67
2022/04/20 10:24:25;;;;;;;1999.90;999.90;;;;;;;;;;4970291;28;20216;-66
2022/04/20 10:27:14;;;;;;;1999.90;999.90;;;;;;;;;;4968888;28;20780;-68
2022/04/20 10:30:00;;;;;;;1999.90;999.90;;;;;;;;;;4970137;28;20232;-68
2022/04/20 10:32:51;;;;;;;1999.90;999.90;;;;;;;;;;4971877;28;20268;-68
2022/04/20 10:35:50;;;;;;;1999.90;999.90;;;;;;;;;;4967601;28;20494;-68
2022/04/20 10:38:35;;;;;;;1999.90;999.90;;;;;;;;;;4970420;28;20223;-69
2022/04/20 10:41:20;;;;;;;1999.90;999.90;;;;;;;;;;4970638;28;20212;-67
2022/04/20 10:44:05;;;;;;;1999.90;999.90;;;;;;;;;;4970409;28;20264;-68
2022/04/20 10:47:03;;;;;;;1999.90;999.90;;;;;;;;;;4969786;28;20550;-68
2022/04/20 10:49:50;;;;;;;1999.90;999.90;;;;;;;;;;4970500;28;20303;-68
2022/04/20 10:52:37;;;;;;;1999.90;999.90;;;;;;;;;;4971163;28;20675;-68
2022/04/20 10:55:26;;;;;;;1999.90;999.90;;;;;;;;;;4973027;28;20226;-68
2022/04/20 10:58:17;;;;;;;1999.90;999.90;;;;;;;;;;4970356;28;20216;-68
2022/04/20 11:01:08;;;;;;;1999.90;999.90;;;;;;;;;;4970607;28;20243;-66
2022/04/20 11:04:06;;;;;;;1999.90;999.90;;;;;;;;;;4970331;28;20573;-67
2022/04/20 11:20:15;;;;;;;1999.90;999.90;;;;;;;;;;5051848;27;20543;-68
2022/04/20 11:23:06;;;;;;;1999.90;999.90;;;;;;;;;;5035674;28;20782;-68
2022/04/20 11:25:51;;;;;;;1999.90;999.90;;;;;;;;;;5031434;28;20202;-68
2022/04/20 11:28:39;;;;;;;1999.90;999.90;;;;;;;;;;5035511;28;20425;-69
2022/04/20 11:31:24;;;;;;;1999.90;999.90;;;;;;;;;;5028058;28;20328;-66
2022/04/20 11:34:10;;;;;;;1999.90;999.90;;;;;;;;;;5029744;28;20679;-68
2022/04/20 11:36:58;;;;;;;1999.90;999.90;;;;;;;;;;5033207;28;20286;-68
2022/04/20 11:39:42;;;;;;;1999.90;999.90;;;;;;;;;;5029544;28;20763;-67
2022/04/20 11:42:27;;;;;;;1999.90;999.90;;;;;;;;;;5025592;28;20285;-68
2022/04/20 11:45:12;;;;;;;1999.90;999.90;;;;;;;;;;5023599;28;20333;-67
2022/04/20 11:47:57;;;;;;;1999.90;999.90;;;;;;;;;;5038392;28;20222;-68
2022/04/20 11:50:43;;;;;;;1999.90;999.90;;;;;;;;;;5030363;28;20226;-67
2022/04/20 11:53:33;;;;;;;1999.90;999.90;;;;;;;;;;5034349;28;20210;-68
2022/04/20 11:56:31;;;;;;;1999.90;999.90;;;;;;;;;;5032373;28;20205;-68
2022/04/20 11:59:18;;;;;;;1999.90;999.90;;;;;;;;;;5033370;28;20454;-68
2022/04/20 12:02:03;;;;;;;1999.90;999.90;;;;;;;;;;5031593;28;20282;-68
2022/04/20 12:04:48;;;;;;;1999.90;999.90;;;;;;;;;;5042039;28;20286;-69
2022/04/20 12:07:33;;;;;;;1999.90;999.90;;;;;;;;;;5031480;28;20304;-67
2022/04/20 12:10:20;;;;;;;1999.90;999.90;;;;;;;;;;5041622;28;20402;-69
2022/04/20 12:13:05;;;;;;;1999.90;999.90;;;;;;;;;;5026511;28;20220;-68
2022/04/20 12:16:00;;;;;;;1999.90;999.90;;;;;;;;;;5025233;28;20229;-68
2022/04/20 12:18:46;;;;;;;1999.90;999.90;;;;;;;;;;5026842;28;20290;-67
2022/04/20 12:21:44;;;;;;;1999.90;999.90;;;;;;;;;;5015818;28;20212;-67
2022/04/20 12:24:29;;;;;;;1999.90;999.90;;;;;;;;;;5015816;28;20206;-67
2022/04/20 12:27:19;;;;;;;1999.90;999.90;;;;;;;;;;5010986;28;20592;-67
2022/04/20 12:30:05;;;;;;;1999.90;999.90;;;;;;;;;;5016224;28;20235;-68
2022/04/20 12:32:50;;;;;;;1999.90;999.90;;;;;;;;;;5013795;28;20217;-68
2022/04/20 12:35:36;;;;;;;1999.90;999.90;;;;;;;;;;5014619;28;20219;-67
2022/04/20 12:38:22;;;;;;;1999.90;999.90;;;;;;;;;;5012925;28;20202;-68
2022/04/20 12:41:29;;;;;;;1999.90;999.90;;;;;;;;;;5011802;28;20984;-68
2022/04/20 12:44:34;;;;;;;1999.90;999.90;;;;;;;;;;5019133;28;20203;-68
2022/04/20 12:47:36;;;;;;;1999.90;999.90;;;;;;;;;;5023965;28;20214;-67
2022/04/20 12:50:24;;;;;;;1999.90;999.90;;;;;;;;;;5024530;28;20592;-66
2022/04/20 12:53:10;;;;;;;1999.90;999.90;;;;;;;;;;5013983;28;20397;-67
2022/04/20 13:02:04;;;;;;;1999.90;999.90;;;;;;;;;;5022695;28;20199;-67
2022/04/20 13:04:52;;;;;;;1999.90;999.90;;;;;;;;;;5020058;28;20207;-66
2022/04/20 13:07:37;;;;;;;1999.90;999.90;;;;;;;;;;5024416;28;20211;-66
2022/04/20 13:10:22;;;;;;;1999.90;999.90;;;;;;;;;;5012944;28;20356;-67
2022/04/20 13:13:08;;;;;;;1999.90;999.90;;;;;;;;;;5013605;28;20206;-67
2022/04/20 13:15:53;;;;;;;1999.90;999.90;;;;;;;;;;5015813;28;20264;-67
2022/04/20 13:18:39;;;;;;;1999.90;999.90;;;;;;;;;;5015674;28;20580;-67
2022/04/20 13:21:26;;;;;;;1999.90;999.90;;;;;;;;;;5008517;28;20436;-66
2022/04/20 13:24:11;;;;;;;1999.90;999.90;;;;;;;;;;5015734;28;20215;-66
2022/04/20 13:30:00;;;;;;;1999.90;999.90;;;;;;;;;;5016441;28;20317;-66
2022/04/20 13:32:45;;;;;;;1999.90;999.90;;;;;;;;;;5006912;28;20412;-66
2022/04/20 13:35:30;;;;;;;1999.90;999.90;;;;;;;;;;5009527;28;20581;-65
2022/04/20 13:38:16;;;;;;;1999.90;999.90;;;;;;;;;;5014459;28;20255;-67
2022/04/20 13:41:02;;;;;;;1999.90;999.90;;;;;;;;;;5019502;28;20234;-67
2022/04/20 13:43:47;;;;;;;1999.90;999.90;;;;;;;;;;5012079;28;20699;-67
2022/04/20 13:46:32;;;;;;;1999.90;999.90;;;;;;;;;;5010113;28;20236;-68
2022/04/20 13:49:17;;;;;;;1999.90;999.90;;;;;;;;;;5022396;28;20226;-67
2022/04/20 13:52:02;;;;;;;1999.90;999.90;;;;;;;;;;5012106;28;20214;-66
2022/04/20 13:54:49;;;;;;;1999.90;999.90;;;;;;;;;;5020284;28;20695;-68
2022/04/20 13:57:35;;;;;;;1999.90;999.90;;;;;;;;;;5026114;28;20204;-67
2022/04/20 14:00:20;;;;;;;1999.90;999.90;;;;;;;;;;5018364;28;20301;-66
2022/04/20 14:03:05;;;;;;;1999.90;999.90;;;;;;;;;;5014848;28;20420;-66
2022/04/20 14:05:50;;;;;;;1999.90;999.90;;;;;;;;;;5012342;28;20420;-65
2022/04/20 14:08:35;;;;;;;1999.90;999.90;;;;;;;;;;5019443;28;20594;-66
2022/04/20 14:11:21;;;;;;;1999.90;999.90;;;;;;;;;;5014435;28;20210;-65
2022/04/20 14:14:06;;;;;;;1999.90;999.90;;;;;;;;;;5016140;28;20420;-66
2022/04/20 14:16:52;;;;;;;1999.90;999.90;;;;;;;;;;5026695;28;20206;-67
2022/04/20 14:19:40;;;;;;;1999.90;999.90;;;;;;;;;;5007210;28;20280;-65
2022/04/20 14:22:25;;;;;;;1999.90;999.90;;;;;;;;;;5008725;28;20214;-65
2022/04/20 14:34:21;;;;;;;1999.90;999.90;;;;;;;;;;5014708;28;20741;-66
2022/04/20 14:37:06;;;;;;;1999.90;999.90;;;;;;;;;;5008605;28;20580;-67
2022/04/20 14:39:51;;;;;;;1999.90;999.90;;;;;;;;;;5013173;28;20341;-66
2022/04/20 14:42:37;;;;;;;1999.90;999.90;;;;;;;;;;5012865;28;20425;-66
2022/04/20 14:45:23;;;;;;;1999.90;999.90;;;;;;;;;;5006112;28;20782;-65
2022/04/20 14:48:08;;;;;;;1999.90;999.90;;;;;;;;;;5017125;28;20279;-66
2022/04/20 14:50:54;;;;;;;1999.90;999.90;;;;;;;;;;5010318;28;20579;-67
2022/04/20 14:53:39;;;;;;;1999.90;999.90;;;;;;;;;;5015796;28;20217;-65
2022/04/20 14:56:24;;;;;;;1999.90;999.90;;;;;;;;;;5009002;28;20581;-65
2022/04/20 14:59:09;;;;;;;1999.90;999.90;;;;;;;;;;5008238;28;20238;-66
2022/04/20 15:01:55;;;;;;;1999.90;999.90;;;;;;;;;;5012221;28;20218;-65
2022/04/20 15:04:40;;;;;;;1999.90;999.90;;;;;;;;;;5008205;28;20226;-67
2022/04/20 15:07:25;;;;;;;1999.90;999.90;;;;;;;;;;5015728;28;20291;-68
2022/04/20 15:10:10;;;;;;;1999.90;999.90;;;;;;;;;;5017023;28;20221;-68
2022/04/20 15:12:56;;;;;;;1999.90;999.90;;;;;;;;;;5010505;28;20281;-68
2022/04/20 15:15:41;;;;;;;1999.90;999.90;;;;;;;;;;5013617;28;20581;-68
2022/04/20 15:18:27;;;;;;;1999.90;999.90;;;;;;;;;;5009322;28;20218;-67
2022/04/20 15:21:12;;;;;;;1999.90;999.90;;;;;;;;;;5010222;28;20718;-68
2022/04/20 15:23:57;;;;;;;1999.90;999.90;;;;;;;;;;5024617;28;20210;-69
2022/04/20 15:26:43;;;;;;;1999.90;999.90;;;;;;;;;;5012556;28;20206;-68
2022/04/20 15:29:28;;;;;;;1999.90;999.90;;;;;;;;;;5014132;28;20250;-68
2022/04/20 15:32:13;;;;;;;1999.90;999.90;;;;;;;;;;5012418;28;20209;-66
2022/04/20 15:34:59;;;;;;;1999.90;999.90;;;;;;;;;;5021635;28;20489;-68
2022/04/20 15:37:44;;;;;;;1999.90;999.90;;;;;;;;;;5014006;28;20210;-69
2022/04/20 15:40:30;;;;;;;1999.90;999.90;;;;;;;;;;5021104;28;20351;-67
2022/04/20 15:43:17;;;;;;;1999.90;999.90;;;;;;;;;;5010404;28;20604;-67
2022/04/20 15:46:03;;;;;;;1999.90;999.90;;;;;;;;;;5019301;28;20206;-66
2022/04/20 15:48:50;;;;;;;1999.90;999.90;;;;;;;;;;5007508;28;20215;-65
2022/04/20 15:51:38;;;;;;;1999.90;999.90;;;;;;;;;;5021229;28;20596;-68
2022/04/20 15:54:23;;;;;;;1999.90;999.90;;;;;;;;;;5020036;28;20571;-69
2022/04/20 16:00:19;;;;;;;1999.90;999.90;;;;;;;;;;5010741;28;20214;-67
2022/04/20 16:03:03;;;;;;;1999.90;999.90;;;;;;;;;;5010826;28;20308;-68
2022/04/20 16:05:49;;;;;;;1999.90;999.90;;;;;;;;;;5018889;28;20207;-68
2022/04/20 16:08:35;;;;;;;1999.90;999.90;;;;;;;;;;5027405;28;20302;-68
2022/04/20 16:11:21;;;;;;;1999.90;999.90;;;;;;;;;;5026382;28;20210;-67
2022/04/20 16:14:06;;;;;;;1999.90;999.90;;;;;;;;;;5026467;28;20218;-68
2022/04/20 16:16:51;;;;;;;1999.90;999.90;;;;;;;;;;5011299;28;20600;-67
2022/04/20 16:19:36;;;;;;;1999.90;999.90;;;;;;;;;;5015815;28;20230;-68
2022/04/20 16:22:21;;;;;;;1999.90;999.90;;;;;;;;;;5019485;28;20698;-67
2022/04/20 16:25:08;;;;;;;1999.90;999.90;;;;;;;;;;5019006;28;20209;-68
2022/04/20 16:27:55;;;;;;;1999.90;999.90;;;;;;;;;;5008913;28;20210;-69
2022/04/20 16:30:40;;;;;;;1999.90;999.90;;;;;;;;;;5024408;28;20316;-68